»·PEaware :: WAT380 KLAS-KLAX

WAT380 :: KLAS-KLAX

FLIGHT INFORMATION

Flight Status: Arrived
Operator:
Walker Air Transport
More flights by this operator :: More flights under this callsign
Pilot: Spencer M. (27733)
Aircraft: BOEING 737-800
(B738)
More flights by this aircraft type
Origin: KLAS McCarran Intl
United States
Destination: KLAX Los Angeles Intl
United States
More flights between these airports :: More routes between these airports
Route: RADYR1 BLAQQ SHTNR ANJLL4
File this flight plan on PilotEdge
Remarks:
Altitude:
(Current/Filed)
28,000ft
Speed:
(Current/Filed)
450kts
Departed: 03-Apr-21 10:00 PM
Arrived: 03-Apr-21 10:43 PM
Distance/Time
Traveled:
205nm/0:42
Distance/Time
To Go:
Arrived

Flight Plot

Page will automatically refresh every two minutes.

Flight plan parsing failed; only flown route is shown


Map Options




Map Legend


Flown Route
Filed Route
Departure Airport
Arrival Airport
Navaid (VOR, NDB)
Fix

Horizontal Profiles

Position Reports

Time Latitude Longitude Heading Altitude Ground
Speed
03-Apr-21 21:15 36.079787 -115.145848 335 2095ft 0kts
03-Apr-21 21:16 36.079787 -115.145848 335 2095ft 0kts
03-Apr-21 21:17 36.079787 -115.145848 335 2095ft 0kts
03-Apr-21 21:18 36.079787 -115.145848 335 2095ft 0kts
03-Apr-21 21:19 36.079787 -115.145848 335 2095ft 0kts
03-Apr-21 21:20 36.079787 -115.145848 335 2095ft 0kts
03-Apr-21 21:21 36.079787 -115.145848 335 2095ft 0kts
03-Apr-21 21:22 36.079787 -115.145848 335 2095ft 0kts
03-Apr-21 21:23 36.079787 -115.145848 335 2095ft 0kts
03-Apr-21 21:24 36.079787 -115.145848 335 2095ft 0kts
03-Apr-21 21:25 36.079787 -115.145848 335 2095ft 0kts
03-Apr-21 21:26 36.079787 -115.145848 335 2095ft 0kts
03-Apr-21 21:27 36.079787 -115.145848 335 2095ft 0kts
03-Apr-21 21:28 36.079787 -115.145848 335 2095ft 0kts
03-Apr-21 21:29 36.079787 -115.145848 335 2095ft 0kts
03-Apr-21 21:30 36.079787 -115.145848 335 2095ft 0kts
03-Apr-21 21:31 36.079787 -115.145848 335 2095ft 0kts
03-Apr-21 21:32 36.079787 -115.145848 335 2095ft 0kts
03-Apr-21 21:33 36.079787 -115.145848 335 2095ft 0kts
03-Apr-21 21:34 36.079787 -115.145848 335 2095ft 0kts
03-Apr-21 21:35 36.079787 -115.145848 335 2095ft 0kts
03-Apr-21 21:36 36.079787 -115.145848 335 2095ft 0kts
03-Apr-21 21:37 36.079787 -115.145848 335 2095ft 0kts
03-Apr-21 21:38 36.079787 -115.145848 335 2095ft 0kts
03-Apr-21 21:39 36.079787 -115.145848 335 2095ft 0kts
03-Apr-21 21:40 36.079787 -115.145848 335 2095ft 0kts
03-Apr-21 21:41 36.079787 -115.145848 335 2095ft 0kts
03-Apr-21 21:42 36.079787 -115.145848 335 2095ft 0kts
03-Apr-21 21:43 36.079787 -115.145848 335 2095ft 0kts
03-Apr-21 21:44 36.079787 -115.145848 335 2095ft 0kts
03-Apr-21 21:45 36.079735 -115.145815 313 2095ft 1kts
03-Apr-21 21:46 36.079611 -115.145170 232 2094ft 2kts
03-Apr-21 21:47 36.079953 -115.144997 176 2093ft 0kts
03-Apr-21 21:48 36.079953 -115.144997 176 2093ft 0kts
03-Apr-21 21:49 36.079953 -115.144997 176 2093ft 0kts
03-Apr-21 21:50 36.079953 -115.144997 176 2093ft 0kts
03-Apr-21 21:51 36.079711 -115.144977 175 2093ft 4kts
03-Apr-21 21:52 36.078304 -115.143867 95 2091ft 14kts
03-Apr-21 21:53 36.078261 -115.136662 89 2070ft 26kts
03-Apr-21 21:54 36.078290 -115.127406 89 2045ft 25kts
03-Apr-21 21:55 36.077850 -115.122053 127 2038ft 12kts
03-Apr-21 21:56 36.076445 -115.121778 265 2040ft 0kts
03-Apr-21 21:57 36.076445 -115.121778 265 2040ft 0kts
03-Apr-21 21:58 36.076445 -115.121778 265 2040ft 0kts
03-Apr-21 21:59 36.076580 -115.155419 269 2419ft 195kts
03-Apr-21 22:00 36.073537 -115.226729 258 5121ft 244kts
03-Apr-21 22:01 36.020263 -115.281836 200 7936ft 285kts
03-Apr-21 22:02 35.943179 -115.306135 193 10302ft 293kts
03-Apr-21 22:03 35.853642 -115.328061 193 12344ft 348kts
03-Apr-21 22:04 35.757589 -115.351601 193 15229ft 361kts
03-Apr-21 22:05 35.657233 -115.376160 194 17859ft 375kts
03-Apr-21 22:06 35.551163 -115.383988 179 19669ft 391kts
03-Apr-21 22:07 35.443535 -115.388588 200 22048ft 391kts
03-Apr-21 22:08 35.342814 -115.441294 209 24086ft 397kts
03-Apr-21 22:09 35.243514 -115.502956 210 25899ft 407kts
03-Apr-21 22:10 35.144639 -115.571955 220 27541ft 412kts
03-Apr-21 22:11 35.058792 -115.666062 227 28054ft 419kts
03-Apr-21 22:12 34.977915 -115.766514 228 28055ft 417kts
03-Apr-21 22:13 34.897546 -115.868279 228 28054ft 417kts
03-Apr-21 22:14 34.817302 -115.970072 228 28075ft 417kts
03-Apr-21 22:15 34.737469 -116.071244 229 28143ft 412kts
03-Apr-21 22:16 34.658296 -116.171853 229 28208ft 414kts
03-Apr-21 22:17 34.578865 -116.272734 229 28210ft 414kts
03-Apr-21 22:18 34.499546 -116.373236 229 28210ft 414kts
03-Apr-21 22:19 34.426685 -116.474625 238 28211ft 373kts
03-Apr-21 22:20 34.374370 -116.583860 244 28208ft 376kts
03-Apr-21 22:21 34.327779 -116.694421 245 27213ft 362kts
03-Apr-21 22:22 34.283208 -116.804711 245 25361ft 364kts
03-Apr-21 22:23 34.239323 -116.913586 244 23203ft 357kts
03-Apr-21 22:24 34.201027 -117.022937 251 21044ft 350kts
03-Apr-21 22:25 34.170865 -117.132542 252 18977ft 341kts
03-Apr-21 22:26 34.141371 -117.239667 252 16965ft 332kts
03-Apr-21 22:27 34.112673 -117.343834 252 15020ft 323kts
03-Apr-21 22:28 34.086258 -117.446122 253 13131ft 316kts
03-Apr-21 22:29 34.057543 -117.544038 247 12178ft 306kts
03-Apr-21 22:30 34.024998 -117.637028 247 11292ft 297kts
03-Apr-21 22:31 34.004292 -117.729734 262 10297ft 273kts
03-Apr-21 22:32 33.995802 -117.819427 263 9153ft 264kts
03-Apr-21 22:33 33.987530 -117.904151 263 8381ft 245kts
03-Apr-21 22:34 33.982937 -117.984515 264 7259ft 241kts
03-Apr-21 22:35 33.972036 -118.063784 262 5748ft 239kts
03-Apr-21 22:36 33.964066 -118.140248 263 4265ft 207kts
03-Apr-21 22:37 33.958019 -118.200586 263 3139ft 168kts
03-Apr-21 22:38 33.952658 -118.253859 263 2277ft 147kts
03-Apr-21 22:39 33.947852 -118.301425 262 1472ft 142kts
03-Apr-21 22:40 33.943071 -118.348431 262 707ft 140kts
03-Apr-21 22:41 33.938531 -118.392783 263 112ft 100kts
03-Apr-21 22:42 33.938495 -118.402823 322 127ft 5kts
03-Apr-21 22:43 33.939917 -118.402510 39 127ft 5kts

Navigation Log

Ident Type
Flight plan parsing failed, navigation log unavailable